Time;durP1;ratioP1;P1;durP2;ratioP2;P2;SDS_P1;SDS_P2;PMS_P1;PMS_P2;Temp;Humidity;BMP_temperature;BMP_pressure;BME280_temperature;BME280_humidity;BME280_pressure;Samples;Min_cycle;Max_cycle;Signal;HPM_P1;HPM_P2
2022/12/08 00:02:16;;;;;;;12.10;10.87;;;4.30;99.90;;;;;;5078454;28;20870;-66
2022/12/08 00:10:10;;;;;;;14.73;13.23;;;4.30;99.90;;;;;;5093257;28;20315;-66
2022/12/08 00:12:36;;;;;;;17.03;11.67;;;4.30;99.90;;;;;;5075772;28;20257;-66
2022/12/08 00:15:02;;;;;;;16.80;14.07;;;4.30;99.90;;;;;;5073077;28;20652;-66
2022/12/08 00:17:27;;;;;;;14.67;10.90;;;4.30;99.90;;;;;;5088261;28;20682;-66
2022/12/08 00:19:53;;;;;;;13.33;11.70;;;4.30;99.90;;;;;;5092882;28;20169;-66
2022/12/08 00:22:18;;;;;;;14.03;11.50;;;4.30;99.90;;;;;;5077237;28;20182;-66
2022/12/08 00:24:45;;;;;;;15.33;13.73;;;4.30;99.90;;;;;;5073015;28;20173;-66
2022/12/08 00:27:13;;;;;;;14.67;11.90;;;4.30;99.90;;;;;;5085825;28;20203;-66
2022/12/08 00:29:39;;;;;;;15.67;11.63;;;4.30;99.90;;;;;;5092808;28;20170;-66
2022/12/08 00:32:05;;;;;;;13.17;11.20;;;4.30;99.90;;;;;;5079836;28;20178;-66
2022/12/08 00:34:31;;;;;;;14.93;13.03;;;4.30;99.90;;;;;;5073014;28;20251;-66
2022/12/08 00:36:57;;;;;;;13.33;10.63;;;4.30;99.90;;;;;;5083355;28;20209;-66
2022/12/08 00:39:23;;;;;;;21.97;14.60;;;4.30;99.90;;;;;;5092693;28;20187;-66
2022/12/08 00:44:33;;;;;;;15.40;12.53;;;4.30;99.90;;;;;;5072791;28;20177;-66
2022/12/08 00:46:59;;;;;;;16.33;11.77;;;4.30;99.90;;;;;;5083511;28;20205;-66
2022/12/08 00:49:25;;;;;;;16.70;12.67;;;4.30;99.90;;;;;;5092430;28;20166;-66
2022/12/08 00:51:51;;;;;;;14.97;13.43;;;4.30;99.90;;;;;;5063554;28;20189;-66
2022/12/08 00:54:17;;;;;;;11.90;10.77;;;4.20;99.90;;;;;;5072247;28;20174;-66
2022/12/08 00:56:43;;;;;;;23.43;12.77;;;4.30;99.90;;;;;;5080777;28;20209;-66
2022/12/08 00:59:09;;;;;;;17.33;13.23;;;4.20;99.90;;;;;;5092235;28;20197;-66
2022/12/08 01:01:35;;;;;;;16.87;13.07;;;4.20;99.90;;;;;;5083977;28;20177;-68
2022/12/08 01:04:09;;;;;;;18.10;13.60;;;4.20;99.90;;;;;;5072021;28;20185;-65
2022/12/08 01:06:35;;;;;;;17.77;12.67;;;4.20;99.90;;;;;;5079310;28;20670;-66
2022/12/08 01:09:03;;;;;;;21.80;14.53;;;4.20;99.90;;;;;;5091519;28;20174;-66
2022/12/08 01:11:28;;;;;;;17.77;13.67;;;4.20;99.90;;;;;;5084780;28;20570;-68
2022/12/08 01:13:54;;;;;;;15.33;12.13;;;4.20;99.90;;;;;;5071825;28;20170;-68
2022/12/08 01:16:25;;;;;;;17.00;14.20;;;4.20;99.90;;;;;;5076468;28;20242;-68
2022/12/08 01:18:51;;;;;;;15.90;13.23;;;4.20;99.90;;;;;;5092230;28;20223;-68
2022/12/08 01:21:17;;;;;;;11.30;10.30;;;4.20;99.90;;;;;;5086530;28;20202;-68
2022/12/08 01:23:43;;;;;;;20.03;12.80;;;4.20;99.90;;;;;;5071656;28;20178;-68
2022/12/08 01:26:10;;;;;;;15.43;13.80;;;4.20;99.90;;;;;;5074725;28;20246;-68
2022/12/08 01:28:37;;;;;;;19.13;11.87;;;4.20;99.90;;;;;;5092301;28;20200;-68
2022/12/08 01:31:03;;;;;;;13.83;12.43;;;4.20;99.90;;;;;;5088534;28;20189;-68
2022/12/08 01:33:30;;;;;;;14.20;12.77;;;4.20;99.90;;;;;;5071687;28;20643;-68
2022/12/08 01:35:56;;;;;;;9.83;8.90;;;4.20;99.90;;;;;;5054455;28;20182;-67
2022/12/08 01:38:21;;;;;;;17.43;13.07;;;4.20;99.90;;;;;;5091806;28;20672;-68
2022/12/08 01:40:48;;;;;;;20.30;14.23;;;4.30;99.90;;;;;;5090917;28;20169;-68
2022/12/08 01:43:16;;;;;;;14.03;12.17;;;4.30;99.90;;;;;;5071486;28;20174;-68
2022/12/08 01:45:42;;;;;;;17.70;12.40;;;4.30;99.90;;;;;;5071607;28;20537;-68
2022/12/08 01:48:14;;;;;;;19.30;12.43;;;4.40;99.90;;;;;;5090743;28;20214;-68
2022/12/08 01:50:41;;;;;;;15.30;13.73;;;4.40;99.90;;;;;;5091594;28;20176;-68
2022/12/08 01:53:15;;;;;;;18.30;12.03;;;4.40;99.90;;;;;;5071829;28;20189;-68
2022/12/08 01:55:48;;;;;;;14.40;13.00;;;4.40;99.90;;;;;;5071422;28;20181;-68
2022/12/08 01:58:36;;;;;;;16.07;13.80;;;4.50;99.90;;;;;;5088944;28;20266;-68
2022/12/08 02:01:02;;;;;;;11.47;10.37;;;4.50;99.90;;;;;;5089055;28;20176;-68
2022/12/08 02:03:35;;;;;;;11.30;10.23;;;4.50;99.90;;;;;;5053416;28;20174;-68
2022/12/08 02:06:02;;;;;;;9.97;9.17;;;4.50;99.90;;;;;;5072310;28;20235;-68
2022/12/08 02:08:28;;;;;;;11.87;10.67;;;4.50;99.90;;;;;;5089833;28;20203;-68
2022/12/08 02:10:54;;;;;;;11.77;10.67;;;4.50;99.90;;;;;;5090896;28;20170;-68
2022/12/08 02:13:22;;;;;;;14.37;12.07;;;4.50;99.90;;;;;;5071434;28;20170;-68
2022/12/08 02:16:29;;;;;;;15.77;13.33;;;4.50;99.90;;;;;;5071194;28;20170;-66
2022/12/08 02:19:12;;;;;;;12.83;11.67;;;4.60;99.90;;;;;;5034476;28;20698;-69
2022/12/08 02:21:49;;;;;;;15.50;11.73;;;4.60;99.90;;;;;;5065235;28;20173;-68
2022/12/08 02:24:35;;;;;;;13.97;12.50;;;4.60;99.90;;;;;;5095489;28;20660;-69
2022/12/08 02:27:19;;;;;;;15.70;13.40;;;4.60;99.90;;;;;;5090327;28;20293;-66
2022/12/08 02:29:52;;;;;;;12.30;10.43;;;4.60;99.90;;;;;;5060148;28;20177;-66
2022/12/08 02:32:39;;;;;;;19.27;12.80;;;4.60;99.90;;;;;;5055135;28;20266;-66
2022/12/08 02:35:29;;;;;;;15.77;12.83;;;4.60;99.90;;;;;;5078827;28;20279;-68
2022/12/08 02:38:13;;;;;;;11.90;10.87;;;4.60;99.90;;;;;;5094989;28;20197;-68
2022/12/08 02:41:03;;;;;;;10.63;8.70;;;4.60;99.90;;;;;;5078571;28;20174;-68
2022/12/08 02:43:49;;;;;;;11.33;10.27;;;4.60;99.90;;;;;;5074899;28;20162;-68
2022/12/08 02:46:23;;;;;;;10.17;9.07;;;4.60;99.90;;;;;;5059671;28;20217;-68
2022/12/08 02:48:51;;;;;;;13.37;10.43;;;4.60;99.90;;;;;;5075135;28;20163;-67
2022/12/08 02:51:17;;;;;;;10.67;9.67;;;4.60;99.90;;;;;;5094680;28;20255;-68
2022/12/08 02:53:43;;;;;;;9.87;8.87;;;4.60;99.90;;;;;;5094667;28;20170;-67
2022/12/08 02:56:49;;;;;;;11.10;10.03;;;4.60;99.90;;;;;;5054442;28;20282;-67
2022/12/08 02:59:42;;;;;;;8.93;8.03;;;4.60;99.90;;;;;;5062093;28;20668;-67
2022/12/08 03:02:25;;;;;;;9.40;8.60;;;4.60;99.90;;;;;;5076629;28;20173;-67
2022/12/08 03:05:12;;;;;;;9.40;8.50;;;4.60;99.90;;;;;;5085268;28;20542;-68
2022/12/08 03:08:01;;;;;;;9.73;8.90;;;4.50;99.90;;;;;;5074350;28;20182;-67
2022/12/08 03:10:31;;;;;;;10.07;8.87;;;4.50;99.90;;;;;;5087784;28;20587;-68
2022/12/08 03:13:13;;;;;;;11.23;10.37;;;4.60;99.90;;;;;;5094572;28;20177;-67
2022/12/08 03:15:40;;;;;;;11.43;7.97;;;4.60;99.90;;;;;;5078697;28;20189;-68
2022/12/08 03:18:09;;;;;;;11.33;10.23;;;4.60;99.90;;;;;;5073887;28;20570;-68
2022/12/08 03:20:36;;;;;;;8.93;8.13;;;4.60;99.90;;;;;;5088294;28;20170;-67
2022/12/08 03:23:06;;;;;;;11.63;10.63;;;4.60;99.90;;;;;;5093707;28;20191;-67
2022/12/08 03:25:36;;;;;;;11.37;9.97;;;4.60;99.90;;;;;;5079480;28;20170;-67
2022/12/08 03:28:03;;;;;;;9.30;8.60;;;4.60;99.90;;;;;;5074259;28;20296;-67
2022/12/08 03:30:32;;;;;;;8.63;8.00;;;4.60;99.90;;;;;;5086551;28;20177;-67
2022/12/08 03:33:04;;;;;;;9.07;8.33;;;4.60;99.90;;;;;;5075965;28;20187;-67
2022/12/08 03:35:33;;;;;;;12.03;8.97;;;4.60;99.90;;;;;;5079859;28;20182;-67
2022/12/08 03:38:10;;;;;;;11.53;10.27;;;4.60;99.90;;;;;;5073608;28;20281;-67
2022/12/08 03:40:36;;;;;;;11.40;10.27;;;4.60;99.90;;;;;;5087966;28;20174;-68
2022/12/08 03:43:02;;;;;;;11.13;9.70;;;4.60;99.90;;;;;;5094026;28;20597;-68
2022/12/08 03:45:28;;;;;;;12.83;8.83;;;4.60;99.90;;;;;;5061990;28;20284;-68
2022/12/08 03:47:54;;;;;;;11.87;10.37;;;4.60;99.90;;;;;;5073551;28;20193;-67
2022/12/08 03:50:19;;;;;;;9.53;8.73;;;4.60;99.90;;;;;;5085149;28;20285;-67
2022/12/08 03:52:45;;;;;;;11.83;10.77;;;4.60;99.90;;;;;;5094010;28;20173;-68
2022/12/08 03:55:11;;;;;;;12.10;9.90;;;4.60;99.90;;;;;;5082303;28;20323;-68
2022/12/08 03:57:36;;;;;;;11.13;10.07;;;4.60;99.90;;;;;;5055534;28;20297;-68
2022/12/08 04:00:04;;;;;;;13.00;10.73;;;4.70;99.90;;;;;;5082332;28;20184;-68
2022/12/08 04:02:30;;;;;;;13.40;8.90;;;4.70;99.90;;;;;;5093712;28;20262;-68
2022/12/08 04:04:55;;;;;;;11.40;9.23;;;4.70;99.90;;;;;;5084567;28;20277;-68
2022/12/08 04:07:21;;;;;;;10.70;9.70;;;4.70;99.90;;;;;;5073299;28;20182;-68
2022/12/08 04:09:46;;;;;;;10.17;9.03;;;4.60;99.90;;;;;;5079848;28;20651;-68
2022/12/08 04:12:12;;;;;;;12.83;9.73;;;4.60;99.90;;;;;;5064537;28;20216;-68
2022/12/08 04:14:38;;;;;;;11.97;9.13;;;4.60;99.90;;;;;;5078428;28;20531;-68
2022/12/08 04:17:03;;;;;;;10.07;9.07;;;4.60;99.90;;;;;;5093164;28;20209;-68
2022/12/08 04:19:29;;;;;;;10.77;9.73;;;4.50;99.90;;;;;;5089430;28;20185;-68
2022/12/08 04:21:54;;;;;;;8.77;8.17;;;4.50;99.90;;;;;;5072928;28;20190;-68
2022/12/08 04:24:20;;;;;;;7.87;7.33;;;4.50;99.90;;;;;;5074370;28;21013;-68
2022/12/08 04:26:45;;;;;;;11.33;10.33;;;4.40;99.90;;;;;;5093170;28;20205;-68
2022/12/08 04:29:11;;;;;;;10.10;9.33;;;4.40;99.90;;;;;;5091847;28;20253;-68
2022/12/08 04:31:37;;;;;;;8.60;7.97;;;4.40;99.90;;;;;;5055431;28;20185;-68
2022/12/08 04:34:02;;;;;;;10.00;9.17;;;4.30;99.90;;;;;;5072716;28;20185;-68
2022/12/08 04:36:28;;;;;;;10.27;9.43;;;4.40;99.90;;;;;;5091666;28;20243;-68
2022/12/08 04:38:53;;;;;;;11.20;10.17;;;4.30;99.90;;;;;;5092996;28;20166;-68
2022/12/08 04:41:19;;;;;;;11.67;10.67;;;4.30;99.90;;;;;;5056289;28;20170;-67
2022/12/08 04:43:45;;;;;;;10.27;8.83;;;4.30;99.90;;;;;;5071904;28;20170;-68
2022/12/08 04:46:11;;;;;;;17.00;10.30;;;4.30;99.90;;;;;;5088807;28;20241;-68
2022/12/08 04:48:38;;;;;;;11.07;9.90;;;4.30;99.90;;;;;;5092934;28;20169;-68
2022/12/08 04:51:04;;;;;;;13.30;11.47;;;4.30;99.90;;;;;;5058278;28;20669;-68
2022/12/08 04:53:30;;;;;;;17.83;9.70;;;4.30;99.90;;;;;;5072400;28;20170;-68
2022/12/08 04:55:55;;;;;;;11.20;9.73;;;4.30;99.90;;;;;;5086069;28;20267;-67
2022/12/08 04:58:21;;;;;;;22.03;11.47;;;4.30;99.90;;;;;;5074160;28;20549;-68
2022/12/08 05:00:47;;;;;;;12.70;11.40;;;4.30;99.90;;;;;;5084485;28;20173;-68
2022/12/08 05:03:13;;;;;;;10.23;9.33;;;4.30;99.90;;;;;;5092424;28;20204;-67
2022/12/08 05:05:40;;;;;;;12.80;11.57;;;4.30;99.90;;;;;;5063242;28;20188;-68
2022/12/08 05:08:05;;;;;;;14.13;10.87;;;4.30;99.90;;;;;;5071931;28;20194;-67
2022/12/08 05:10:31;;;;;;;13.27;9.83;;;4.30;99.90;;;;;;5080733;28;20530;-68
2022/12/08 05:12:58;;;;;;;14.03;11.07;;;4.30;99.90;;;;;;5092484;28;20169;-68
2022/12/08 05:15:23;;;;;;;12.60;11.33;;;4.40;99.90;;;;;;5083689;28;20185;-68
2022/12/08 05:17:49;;;;;;;12.40;10.30;;;4.30;99.90;;;;;;5071538;28;20586;-68
2022/12/08 05:20:15;;;;;;;18.67;12.67;;;4.30;99.90;;;;;;5078125;28;20582;-68
2022/12/08 05:22:41;;;;;;;14.60;12.30;;;4.40;99.90;;;;;;5092254;28;20303;-68
2022/12/08 05:25:07;;;;;;;15.27;11.93;;;4.40;99.90;;;;;;5086012;28;20210;-68
2022/12/08 05:27:33;;;;;;;19.30;13.03;;;4.40;99.90;;;;;;5071713;28;20182;-68
2022/12/08 05:29:59;;;;;;;11.13;10.03;;;4.30;99.90;;;;;;5075462;28;20184;-67
2022/12/08 05:32:24;;;;;;;20.33;10.80;;;4.30;99.90;;;;;;5092038;28;20651;-68
2022/12/08 05:34:50;;;;;;;10.07;9.10;;;4.30;99.90;;;;;;5088639;28;20178;-68
2022/12/08 05:37:16;;;;;;;16.57;11.73;;;4.30;99.90;;;;;;5053784;28;20206;-68
2022/12/08 05:39:41;;;;;;;15.20;13.67;;;4.30;99.90;;;;;;5072792;28;20248;-68
2022/12/08 05:42:07;;;;;;;14.67;12.60;;;4.30;99.90;;;;;;5091773;28;20173;-68
2022/12/08 05:44:33;;;;;;;20.73;12.33;;;4.30;99.90;;;;;;5091253;28;20652;-68
2022/12/08 05:46:58;;;;;;;25.40;12.43;;;4.30;99.90;;;;;;5071415;28;20729;-67
2022/12/08 05:49:24;;;;;;;14.00;11.83;;;4.30;99.90;;;;;;5071367;28;20249;-68
2022/12/08 05:51:49;;;;;;;12.90;10.20;;;4.30;99.90;;;;;;5071956;28;20579;-68
2022/12/08 05:54:15;;;;;;;16.00;10.83;;;4.30;99.90;;;;;;5091277;28;20515;-68
2022/12/08 05:56:40;;;;;;;14.80;11.93;;;4.30;99.90;;;;;;5073276;28;20216;-68
2022/12/08 05:59:06;;;;;;;13.87;10.77;;;4.30;99.90;;;;;;5071145;28;20548;-67
2022/12/08 06:01:32;;;;;;;23.27;13.83;;;4.30;99.90;;;;;;5087454;28;20252;-68
2022/12/08 06:04:00;;;;;;;16.40;12.30;;;4.30;99.90;;;;;;5073347;28;20611;-68
2022/12/08 06:06:26;;;;;;;13.87;11.47;;;4.30;99.90;;;;;;5075522;28;20185;-68
2022/12/08 06:08:52;;;;;;;23.27;13.33;;;4.30;99.90;;;;;;5053323;28;20174;-68
2022/12/08 06:11:29;;;;;;;16.40;10.37;;;4.30;99.90;;;;;;5085086;28;20538;-68
2022/12/08 06:13:56;;;;;;;12.77;11.33;;;4.30;99.90;;;;;;5073304;28;20253;-68
2022/12/08 06:16:22;;;;;;;14.07;9.97;;;4.30;99.90;;;;;;5076186;28;20206;-68
2022/12/08 06:18:48;;;;;;;15.70;11.97;;;4.30;99.90;;;;;;5071396;28;20174;-68
2022/12/08 06:21:15;;;;;;;13.70;12.30;;;4.30;99.90;;;;;;5066232;28;20200;-68
2022/12/08 06:23:42;;;;;;;15.67;12.50;;;4.20;99.90;;;;;;5091359;28;20177;-68
2022/12/08 06:26:10;;;;;;;20.23;12.07;;;4.20;99.90;;;;;;5078361;28;20253;-68
2022/12/08 06:28:36;;;;;;;18.23;14.03;;;4.20;99.90;;;;;;5071283;28;20253;-68
2022/12/08 06:31:18;;;;;;;13.90;12.47;;;4.20;99.90;;;;;;5077987;28;20192;-68
2022/12/08 06:33:44;;;;;;;11.97;10.87;;;4.10;99.90;;;;;;5073805;28;20166;-68
2022/12/08 06:36:11;;;;;;;15.30;12.80;;;4.10;99.90;;;;;;5070791;28;20167;-68
2022/12/08 06:38:37;;;;;;;14.70;13.33;;;4.10;99.90;;;;;;5081909;28;20184;-68
2022/12/08 06:41:04;;;;;;;11.87;10.60;;;4.10;99.90;;;;;;5090869;28;20178;-67
2022/12/08 06:43:30;;;;;;;19.23;13.33;;;4.10;99.90;;;;;;5071735;28;20182;-68
2022/12/08 06:45:56;;;;;;;14.63;13.17;;;4.10;99.90;;;;;;5070823;28;20170;-67
2022/12/08 06:48:22;;;;;;;18.30;13.60;;;4.10;99.90;;;;;;5088254;28;20208;-68
2022/12/08 06:50:48;;;;;;;14.63;12.87;;;4.10;99.90;;;;;;5090882;28;20195;-68
2022/12/08 06:53:14;;;;;;;9.87;9.20;;;4.10;99.90;;;;;;5074182;28;20308;-68
2022/12/08 06:55:51;;;;;;;15.50;13.07;;;4.10;99.90;;;;;;5070843;28;20530;-68
2022/12/08 06:58:17;;;;;;;13.57;12.10;;;4.10;99.90;;;;;;5087972;28;20333;-67
2022/12/08 07:00:43;;;;;;;19.73;12.20;;;4.00;99.90;;;;;;5072625;28;20634;-68
2022/12/08 07:03:10;;;;;;;12.27;10.67;;;4.10;99.90;;;;;;5075037;28;20187;-68
2022/12/08 07:05:36;;;;;;;15.30;11.63;;;4.00;99.90;;;;;;5070924;28;20179;-68
2022/12/08 07:08:03;;;;;;;13.80;12.57;;;4.00;99.90;;;;;;5088340;28;20280;-68
2022/12/08 07:10:28;;;;;;;16.00;12.97;;;4.00;99.90;;;;;;5076347;28;20173;-68
2022/12/08 07:12:54;;;;;;;15.07;13.10;;;4.00;99.90;;;;;;5063015;28;20558;-68
2022/12/08 07:15:19;;;;;;;13.93;12.00;;;4.00;99.90;;;;;;5074299;28;20177;-67
2022/12/08 07:17:46;;;;;;;11.60;10.70;;;4.00;99.90;;;;;;5085532;28;20213;-68
2022/12/08 07:20:12;;;;;;;20.17;11.70;;;3.90;99.90;;;;;;5050956;28;20182;-68
2022/12/08 07:22:38;;;;;;;13.17;11.60;;;3.90;99.90;;;;;;5069912;28;20178;-68
2022/12/08 07:25:04;;;;;;;13.20;11.97;;;3.90;99.90;;;;;;5073975;28;20166;-68
2022/12/08 07:27:30;;;;;;;10.13;9.30;;;3.90;99.90;;;;;;5082778;28;20216;-68
2022/12/08 07:29:56;;;;;;;13.70;12.40;;;3.90;99.90;;;;;;5093934;28;20256;-68
2022/12/08 07:32:21;;;;;;;11.37;10.47;;;3.90;99.90;;;;;;5085741;28;20189;-68
2022/12/08 07:34:47;;;;;;;14.17;11.30;;;3.90;99.90;;;;;;5073905;28;20172;-68
2022/12/08 07:37:13;;;;;;;13.60;12.07;;;3.90;99.90;;;;;;5061634;28;20232;-68
2022/12/08 07:39:38;;;;;;;11.80;10.80;;;3.90;99.90;;;;;;5075655;28;20174;-69
2022/12/08 07:42:04;;;;;;;13.70;12.07;;;3.90;99.90;;;;;;5088064;28;20170;-68
2022/12/08 07:44:29;;;;;;;15.03;11.43;;;3.90;99.90;;;;;;5073800;28;20180;-68
2022/12/08 07:46:55;;;;;;;19.80;13.53;;;3.80;99.90;;;;;;5059123;28;20203;-68
2022/12/08 07:49:21;;;;;;;13.50;12.30;;;3.80;99.90;;;;;;5067628;28;20174;-68
2022/12/08 07:51:46;;;;;;;13.67;12.03;;;3.80;99.90;;;;;;5083742;28;20177;-68
2022/12/08 07:54:12;;;;;;;15.33;12.70;;;3.80;99.90;;;;;;5075464;28;20173;-68
2022/12/08 07:56:38;;;;;;;13.90;12.63;;;3.80;99.90;;;;;;5084562;28;20671;-68
2022/12/08 07:59:03;;;;;;;13.53;12.27;;;3.80;99.90;;;;;;5055194;28;20231;-68
2022/12/08 08:01:32;;;;;;;20.50;13.37;;;3.80;99.90;;;;;;5079906;28;20173;-68
2022/12/08 08:04:03;;;;;;;12.37;10.00;;;3.80;99.90;;;;;;5075048;28;20590;-68
2022/12/08 08:06:29;;;;;;;14.53;11.27;;;3.70;99.90;;;;;;5068093;28;20178;-68
2022/12/08 08:08:55;;;;;;;13.50;12.30;;;3.70;99.90;;;;;;5073157;28;20173;-68
2022/12/08 08:11:21;;;;;;;14.27;13.07;;;3.70;99.90;;;;;;5060165;28;20173;-68
2022/12/08 08:13:46;;;;;;;12.67;11.27;;;3.70;99.90;;;;;;5075073;28;20173;-68
2022/12/08 08:16:12;;;;;;;12.37;11.17;;;3.70;99.90;;;;;;5069719;28;20212;-67
2022/12/08 08:18:38;;;;;;;24.80;13.17;;;3.70;99.90;;;;;;5098705;22;20230;-65
2022/12/08 08:21:05;;;;;;;18.23;14.17;;;3.90;99.90;;;;;;5072730;28;20179;-65
2022/12/08 08:23:31;;;;;;;13.47;12.10;;;3.70;99.90;;;;;;5084012;28;20264;-65
2022/12/08 08:26:01;;;;;;;12.73;10.13;;;3.80;99.90;;;;;;5075826;28;20173;-66
2022/12/08 08:28:28;;;;;;;17.07;12.57;;;3.80;99.90;;;;;;5089532;28;20279;-65
2022/12/08 08:30:54;;;;;;;13.70;12.30;;;3.80;99.90;;;;;;5091537;28;20166;-65
2022/12/08 08:33:20;;;;;;;14.57;13.10;;;3.80;99.90;;;;;;5088461;28;20242;-65
2022/12/08 08:35:45;;;;;;;12.00;10.83;;;3.80;99.90;;;;;;5086652;28;20228;-66
2022/12/08 08:38:11;;;;;;;14.27;12.80;;;3.80;99.90;;;;;;5072639;28;20670;-66
2022/12/08 08:40:37;;;;;;;13.97;12.33;;;3.80;99.90;;;;;;5054526;28;20170;-66
2022/12/08 08:43:03;;;;;;;18.37;11.33;;;3.80;99.90;;;;;;5072350;28;20249;-66
2022/12/08 08:45:29;;;;;;;14.10;12.40;;;3.90;99.90;;;;;;5072759;28;20352;-66
2022/12/08 08:47:55;;;;;;;13.17;11.93;;;3.80;99.90;;;;;;5054171;28;20754;-65
2022/12/08 08:50:21;;;;;;;11.87;10.83;;;3.80;99.90;;;;;;5072231;28;20170;-65
2022/12/08 08:52:47;;;;;;;13.83;11.57;;;3.80;99.90;;;;;;5054488;28;20247;-65
2022/12/08 08:55:12;;;;;;;11.40;10.20;;;3.80;99.90;;;;;;5072066;28;20177;-65
2022/12/08 08:57:38;;;;;;;14.13;12.87;;;3.80;99.90;;;;;;5072092;28;20571;-65
2022/12/08 09:00:05;;;;;;;11.87;10.87;;;3.80;99.90;;;;;;5055720;28;20181;-66
2022/12/08 09:02:30;;;;;;;12.43;11.43;;;3.80;99.90;;;;;;5084657;28;20180;-65
2022/12/08 09:04:56;;;;;;;11.20;10.17;;;3.80;99.90;;;;;;5090461;28;20174;-65
2022/12/08 09:07:22;;;;;;;11.33;10.20;;;3.70;99.90;;;;;;5072070;28;20194;-65
2022/12/08 09:09:47;;;;;;;11.83;10.73;;;3.80;99.90;;;;;;5072752;28;20185;-65
2022/12/08 09:12:13;;;;;;;12.93;11.93;;;3.80;99.90;;;;;;5071893;28;20193;-65
2022/12/08 09:14:39;;;;;;;8.73;8.10;;;3.80;99.90;;;;;;5078653;28;20186;-65
2022/12/08 09:17:05;;;;;;;10.97;10.17;;;3.80;99.90;;;;;;5082170;28;20235;-65
2022/12/08 09:19:31;;;;;;;14.40;13.07;;;3.80;99.90;;;;;;5089106;28;20170;-65
2022/12/08 09:21:56;;;;;;;10.93;9.93;;;3.90;99.90;;;;;;5064655;28;20707;-65
2022/12/08 09:24:22;;;;;;;12.80;10.77;;;4.00;99.90;;;;;;5072051;28;20220;-65
2022/12/08 09:26:48;;;;;;;14.50;11.13;;;4.10;99.90;;;;;;5071797;28;20257;-65
2022/12/08 09:29:18;;;;;;;14.53;12.20;;;4.10;99.90;;;;;;5071200;28;20166;-65
2022/12/08 09:31:44;;;;;;;11.80;9.77;;;4.20;99.90;;;;;;5071619;28;20170;-65
2022/12/08 09:34:10;;;;;;;10.87;9.33;;;4.20;99.90;;;;;;5069862;28;20589;-65
2022/12/08 09:36:36;;;;;;;8.00;7.40;;;4.30;99.90;;;;;;5070487;28;20201;-66
2022/12/08 09:39:02;;;;;;;8.20;7.47;;;4.40;99.90;;;;;;5070356;28;20194;-66
2022/12/08 09:41:35;;;;;;;9.70;7.07;;;4.30;99.90;;;;;;5071674;28;20697;-65
2022/12/08 09:44:23;;;;;;;7.87;7.30;;;4.40;99.90;;;;;;5071527;28;20587;-66
2022/12/08 09:46:51;;;;;;;8.77;8.07;;;4.30;99.90;;;;;;5071604;28;20166;-65
2022/12/08 09:49:21;;;;;;;7.67;7.17;;;4.30;99.90;;;;;;5071524;28;20178;-66
2022/12/08 09:51:47;;;;;;;9.63;8.80;;;4.30;99.90;;;;;;5070201;28;20170;-65
2022/12/08 09:54:24;;;;;;;7.07;6.67;;;4.30;99.90;;;;;;5070228;28;20182;-65
2022/12/08 09:56:54;;;;;;;10.87;9.87;;;4.30;99.90;;;;;;5071458;28;20190;-66
2022/12/08 09:59:33;;;;;;;11.93;10.63;;;4.30;99.90;;;;;;5071241;28;20627;-65
2022/12/08 10:02:00;;;;;;;10.53;8.70;;;4.40;99.90;;;;;;5071299;28;20165;-65
2022/12/08 10:04:32;;;;;;;11.00;10.00;;;4.30;99.90;;;;;;5071471;28;20538;-66
2022/12/08 10:07:19;;;;;;;411.90;391.37;;;4.30;99.90;;;;;;5070032;28;20647;-65
2022/12/08 10:09:55;;;;;;;7.97;7.30;;;4.40;99.90;;;;;;5071145;28;20540;-65
2022/12/08 10:12:43;;;;;;;8.03;7.40;;;4.40;99.90;;;;;;5071494;28;20177;-66
2022/12/08 10:15:21;;;;;;;10.20;9.30;;;4.50;99.90;;;;;;5069942;28;20178;-66
2022/12/08 10:17:49;;;;;;;9.50;8.77;;;4.50;99.90;;;;;;5070008;28;20581;-66
2022/12/08 10:20:18;;;;;;;10.67;9.17;;;4.60;99.90;;;;;;5069732;28;20209;-66
2022/12/08 10:22:46;;;;;;;10.77;9.20;;;4.60;99.90;;;;;;5071396;28;20258;-65
2022/12/08 10:25:38;;;;;;;11.80;10.60;;;4.60;99.90;;;;;;5071228;28;20170;-66
2022/12/08 10:28:04;;;;;;;11.70;10.13;;;4.60;99.90;;;;;;5052343;28;20571;-66
2022/12/08 10:30:31;;;;;;;10.50;9.50;;;4.70;99.90;;;;;;5071059;28;20177;-65
2022/12/08 10:32:56;;;;;;;11.70;9.70;;;4.70;99.90;;;;;;5069963;28;20591;-65
2022/12/08 10:35:24;;;;;;;10.97;9.87;;;4.90;99.90;;;;;;5072570;28;20201;-65
2022/12/08 10:37:58;;;;;;;11.30;9.67;;;4.80;99.90;;;;;;5071117;28;20198;-65
2022/12/08 10:40:27;;;;;;;12.27;10.03;;;4.90;99.90;;;;;;5070751;28;20208;-65
2022/12/08 10:42:56;;;;;;;15.20;10.10;;;4.90;99.90;;;;;;5074926;28;20162;-65
2022/12/08 10:45:29;;;;;;;10.43;9.50;;;4.90;99.90;;;;;;5057163;28;20311;-65
2022/12/08 10:48:23;;;;;;;15.10;8.77;;;4.90;99.90;;;;;;5074141;28;20190;-66
2022/12/08 10:50:51;;;;;;;10.07;7.23;;;4.80;99.90;;;;;;5073529;28;20614;-65
2022/12/08 10:53:26;;;;;;;7.53;6.97;;;4.70;99.90;;;;;;5087099;28;20220;-65
2022/12/08 10:56:01;;;;;;;7.30;6.80;;;4.70;99.90;;;;;;5094900;28;20213;-65
2022/12/08 10:58:27;;;;;;;7.70;7.30;;;4.70;99.90;;;;;;5064176;28;20205;-65
2022/12/08 11:00:55;;;;;;;7.67;6.97;;;4.70;99.90;;;;;;5074242;28;20186;-65
2022/12/08 11:03:27;;;;;;;8.30;7.50;;;4.70;99.90;;;;;;5068990;28;20364;-65
2022/12/08 11:05:57;;;;;;;8.30;7.70;;;4.80;99.90;;;;;;5094131;28;20208;-65
2022/12/08 11:08:23;;;;;;;9.70;7.93;;;4.80;99.90;;;;;;5093049;28;20330;-65
2022/12/08 11:10:49;;;;;;;12.20;8.00;;;4.80;99.90;;;;;;5077556;28;20710;-65
2022/12/08 11:13:20;;;;;;;8.20;7.63;;;4.80;99.90;;;;;;5084598;28;20318;-65
2022/12/08 11:15:46;;;;;;;8.97;7.87;;;4.80;99.90;;;;;;5094704;28;20513;-65
2022/12/08 11:18:37;;;;;;;7.83;7.23;;;4.90;99.90;;;;;;5066372;28;20771;-65
2022/12/08 11:21:11;;;;;;;9.63;8.60;;;4.90;99.90;;;;;;5056265;28;20193;-65
2022/12/08 11:23:39;;;;;;;8.70;7.93;;;5.00;99.90;;;;;;5068584;28;20223;-65
2022/12/08 11:26:22;;;;;;;10.90;8.20;;;5.00;99.90;;;;;;5094065;28;20228;-65
2022/12/08 11:28:48;;;;;;;8.43;7.00;;;5.00;99.90;;;;;;5061729;28;20289;-65
2022/12/08 11:31:40;;;;;;;7.37;6.63;;;5.00;99.90;;;;;;5073759;28;20254;-65
2022/12/08 11:34:16;;;;;;;8.13;7.53;;;5.00;99.90;;;;;;5045359;28;20197;-65
2022/12/08 11:36:42;;;;;;;7.60;7.13;;;5.00;99.90;;;;;;5094269;28;20193;-65
2022/12/08 11:39:11;;;;;;;7.23;6.87;;;5.10;99.90;;;;;;5076829;28;20691;-65
2022/12/08 11:41:39;;;;;;;22.20;7.27;;;5.00;99.90;;;;;;5073864;28;20281;-66
2022/12/08 11:44:24;;;;;;;7.87;7.37;;;5.10;99.90;;;;;;5089330;28;20170;-65
2022/12/08 11:46:55;;;;;;;8.37;7.57;;;5.00;99.90;;;;;;5094092;28;20518;-66
2022/12/08 11:49:33;;;;;;;7.70;7.07;;;5.00;99.90;;;;;;5075246;28;20766;-65
2022/12/08 11:52:11;;;;;;;8.27;7.53;;;5.00;99.90;;;;;;5073050;28;20185;-66
2022/12/08 11:54:47;;;;;;;7.10;6.70;;;5.00;99.90;;;;;;5093155;28;20654;-66
2022/12/08 11:57:15;;;;;;;11.40;8.03;;;5.00;99.90;;;;;;5076768;28;20284;-65
2022/12/08 11:59:49;;;;;;;7.90;7.40;;;5.10;99.90;;;;;;5052101;28;20300;-65
2022/12/08 12:02:19;;;;;;;8.43;7.73;;;5.10;99.90;;;;;;5085646;28;20629;-65
2022/12/08 12:04:59;;;;;;;8.67;7.57;;;5.10;99.90;;;;;;5093811;28;20193;-65
2022/12/08 12:07:51;;;;;;;7.80;7.20;;;5.20;99.90;;;;;;5075474;28;20197;-65
2022/12/08 12:10:23;;;;;;;8.53;7.57;;;5.30;99.90;;;;;;5055061;28;20281;-65
2022/12/08 12:13:07;;;;;;;7.67;7.07;;;5.30;99.90;;;;;;5053376;28;20174;-65
2022/12/08 12:15:45;;;;;;;9.33;8.63;;;5.40;99.90;;;;;;5057435;28;20198;-65
2022/12/08 12:18:15;;;;;;;7.40;6.97;;;5.40;99.90;;;;;;5093227;28;20700;-65
2022/12/08 12:20:56;;;;;;;7.23;6.67;;;5.50;99.90;;;;;;5072169;28;20170;-65
2022/12/08 12:23:38;;;;;;;7.80;7.20;;;5.40;99.90;;;;;;5073087;28;20228;-65
2022/12/08 12:26:16;;;;;;;10.20;9.03;;;5.50;99.90;;;;;;5060798;28;20264;-65
2022/12/08 12:29:22;;;;;;;8.90;8.13;;;5.60;99.90;;;;;;5075251;28;20276;-65
2022/12/08 12:31:54;;;;;;;9.53;8.73;;;5.50;99.90;;;;;;5079952;28;20217;-65
2022/12/08 12:34:30;;;;;;;8.00;7.40;;;5.50;99.90;;;;;;5072969;28;20185;-65
2022/12/08 12:37:09;;;;;;;9.10;8.20;;;5.40;99.90;;;;;;5067474;28;20605;-65
2022/12/08 12:39:51;;;;;;;12.30;7.97;;;5.50;99.90;;;;;;5092941;28;20219;-65
2022/12/08 12:42:35;;;;;;;8.87;7.97;;;5.60;99.90;;;;;;5076053;28;20609;-65
2022/12/08 12:45:16;;;;;;;8.70;7.97;;;5.70;99.90;;;;;;5060684;28;20239;-65
2022/12/08 12:48:11;;;;;;;7.87;6.80;;;5.70;99.90;;;;;;5072641;28;20194;-65
2022/12/08 12:50:40;;;;;;;8.10;7.60;;;5.80;99.90;;;;;;5055053;28;20174;-65
2022/12/08 12:53:15;;;;;;;15.07;8.07;;;5.70;99.90;;;;;;5074355;28;20181;-64
2022/12/08 12:55:59;;;;;;;8.10;6.67;;;5.70;99.90;;;;;;5071980;28;20264;-65
2022/12/08 12:58:30;;;;;;;7.50;7.00;;;5.70;99.90;;;;;;5072371;28;20240;-65
2022/12/08 13:01:12;;;;;;;7.43;6.83;;;5.70;99.90;;;;;;5075512;28;20193;-64
2022/12/08 13:03:50;;;;;;;8.67;7.93;;;5.70;99.90;;;;;;5091666;28;20166;-65
2022/12/08 13:06:31;;;;;;;8.57;7.80;;;5.70;99.90;;;;;;5067092;28;20277;-65